Terminal Aerodrome Forecast
Issued by NWS North Platte, NE

Home | Current Version | Previous Version | Text Only | Print | Product List | Glossary On
Versions: 1 2 3 4 5 6 7 8 9 10 11 12 13 14 15 16
000
FTUS43 KLBF 010500
TAFLBF
TAF
KLBF 010521Z 0106/0206 VRB04KT P6SM OVC120
     FM011500 34007KT P6SM SCT120 SCT250
     FM020000 03007KT P6SM BKN090 OVC150 PROB30 0201/0206 P6SM -TSRA
      BKN050CB=

USA.gov is the U.S. government's official web portal to all federal, state and local government web resources and services.